sensor_id;sensor_type;location;lat;lon;timestamp;temperature;humidity
64143;DHT22;50437;51.970;5.904;2023-02-11T00:00:32;6.10;99.90
64143;DHT22;50437;51.970;5.904;2023-02-11T00:03:01;6.20;99.90
64143;DHT22;50437;51.970;5.904;2023-02-11T00:05:27;6.30;99.90
64143;DHT22;50437;51.970;5.904;2023-02-11T00:07:53;6.20;99.90
64143;DHT22;50437;51.970;5.904;2023-02-11T00:10:19;6.30;99.90
64143;DHT22;50437;51.970;5.904;2023-02-11T00:12:45;6.30;99.90
64143;DHT22;50437;51.970;5.904;2023-02-11T00:15:11;6.30;99.90
64143;DHT22;50437;51.970;5.904;2023-02-11T00:17:37;6.20;99.90
64143;DHT22;50437;51.970;5.904;2023-02-11T00:20:03;6.20;99.90
64143;DHT22;50437;51.970;5.904;2023-02-11T00:22:29;6.20;99.90
64143;DHT22;50437;51.970;5.904;2023-02-11T00:24:55;6.20;99.90
64143;DHT22;50437;51.970;5.904;2023-02-11T00:27:21;6.20;99.90
64143;DHT22;50437;51.970;5.904;2023-02-11T00:29:47;6.20;99.90
64143;DHT22;50437;51.970;5.904;2023-02-11T00:32:13;6.20;99.90
64143;DHT22;50437;51.970;5.904;2023-02-11T00:34:39;6.20;99.90
64143;DHT22;50437;51.970;5.904;2023-02-11T00:37:05;6.30;99.90
64143;DHT22;50437;51.970;5.904;2023-02-11T00:39:32;6.20;99.90
64143;DHT22;50437;51.970;5.904;2023-02-11T00:41:58;6.20;99.90
64143;DHT22;50437;51.970;5.904;2023-02-11T00:44:24;6.30;99.90
64143;DHT22;50437;51.970;5.904;2023-02-11T00:46:50;6.20;99.90
64143;DHT22;50437;51.970;5.904;2023-02-11T00:49:16;6.20;99.90
64143;DHT22;50437;51.970;5.904;2023-02-11T00:51:42;6.20;99.90
64143;DHT22;50437;51.970;5.904;2023-02-11T00:54:08;6.20;99.90
64143;DHT22;50437;51.970;5.904;2023-02-11T00:56:37;6.20;99.90
64143;DHT22;50437;51.970;5.904;2023-02-11T00:59:03;6.30;99.90
64143;DHT22;50437;51.970;5.904;2023-02-11T01:01:29;6.20;99.90
64143;DHT22;50437;51.970;5.904;2023-02-11T01:03:55;6.20;99.90
64143;DHT22;50437;51.970;5.904;2023-02-11T01:06:22;6.30;99.90
64143;DHT22;50437;51.970;5.904;2023-02-11T01:08:48;6.20;99.90
64143;DHT22;50437;51.970;5.904;2023-02-11T01:11:16;6.20;99.90
64143;DHT22;50437;51.970;5.904;2023-02-11T01:13:44;6.20;99.90
64143;DHT22;50437;51.970;5.904;2023-02-11T01:16:11;6.20;99.90
64143;DHT22;50437;51.970;5.904;2023-02-11T01:18:38;6.20;99.90
64143;DHT22;50437;51.970;5.904;2023-02-11T01:21:04;6.20;99.90
64143;DHT22;50437;51.970;5.904;2023-02-11T01:23:30;6.20;99.90
64143;DHT22;50437;51.970;5.904;2023-02-11T01:25:56;6.10;99.90
64143;DHT22;50437;51.970;5.904;2023-02-11T01:28:23;6.10;99.90
64143;DHT22;50437;51.970;5.904;2023-02-11T01:30:49;6.10;99.90
64143;DHT22;50437;51.970;5.904;2023-02-11T01:33:15;6.10;99.90
64143;DHT22;50437;51.970;5.904;2023-02-11T01:35:42;6.00;99.90
64143;DHT22;50437;51.970;5.904;2023-02-11T01:38:13;6.00;99.90
64143;DHT22;50437;51.970;5.904;2023-02-11T01:40:39;5.90;99.90
64143;DHT22;50437;51.970;5.904;2023-02-11T01:43:05;6.00;99.90
64143;DHT22;50437;51.970;5.904;2023-02-11T01:45:43;6.00;99.90
64143;DHT22;50437;51.970;5.904;2023-02-11T01:48:21;6.10;99.90
64143;DHT22;50437;51.970;5.904;2023-02-11T01:50:50;6.10;99.90
64143;DHT22;50437;51.970;5.904;2023-02-11T01:53:17;6.10;99.90
64143;DHT22;50437;51.970;5.904;2023-02-11T01:56:01;6.10;99.90
64143;DHT22;50437;51.970;5.904;2023-02-11T01:58:46;6.10;99.90
64143;DHT22;50437;51.970;5.904;2023-02-11T02:01:14;6.00;99.90
64143;DHT22;50437;51.970;5.904;2023-02-11T02:03:42;6.10;99.90
64143;DHT22;50437;51.970;5.904;2023-02-11T02:06:29;6.10;99.90
64143;DHT22;50437;51.970;5.904;2023-02-11T02:08:58;6.10;99.90
64143;DHT22;50437;51.970;5.904;2023-02-11T02:11:28;6.00;99.90
64143;DHT22;50437;51.970;5.904;2023-02-11T02:13:54;6.10;99.90
64143;DHT22;50437;51.970;5.904;2023-02-11T02:16:20;6.10;99.90
64143;DHT22;50437;51.970;5.904;2023-02-11T02:18:51;6.00;99.90
64143;DHT22;50437;51.970;5.904;2023-02-11T02:21:21;6.10;99.90
64143;DHT22;50437;51.970;5.904;2023-02-11T02:34:12;6.10;99.90
64143;DHT22;50437;51.970;5.904;2023-02-11T02:36:48;6.10;99.90
64143;DHT22;50437;51.970;5.904;2023-02-11T02:39:18;6.10;99.90
64143;DHT22;50437;51.970;5.904;2023-02-11T02:41:45;6.10;99.90
64143;DHT22;50437;51.970;5.904;2023-02-11T02:44:11;6.10;99.90
64143;DHT22;50437;51.970;5.904;2023-02-11T02:46:37;6.00;99.90
64143;DHT22;50437;51.970;5.904;2023-02-11T02:49:05;6.00;99.90
64143;DHT22;50437;51.970;5.904;2023-02-11T02:56:51;6.00;99.90
64143;DHT22;50437;51.970;5.904;2023-02-11T03:02:04;6.00;99.90
64143;DHT22;50437;51.970;5.904;2023-02-11T03:09:30;5.90;99.90
64143;DHT22;50437;51.970;5.904;2023-02-11T03:11:57;5.90;99.90
64143;DHT22;50437;51.970;5.904;2023-02-11T03:14:25;5.90;99.90
64143;DHT22;50437;51.970;5.904;2023-02-11T03:16:51;5.80;99.90
64143;DHT22;50437;51.970;5.904;2023-02-11T03:19:20;5.90;99.90
64143;DHT22;50437;51.970;5.904;2023-02-11T03:21:48;5.90;99.90
64143;DHT22;50437;51.970;5.904;2023-02-11T03:24:16;5.90;99.90
64143;DHT22;50437;51.970;5.904;2023-02-11T03:26:48;5.90;99.90
64143;DHT22;50437;51.970;5.904;2023-02-11T03:29:19;6.00;99.90
64143;DHT22;50437;51.970;5.904;2023-02-11T03:34:28;5.90;99.90
64143;DHT22;50437;51.970;5.904;2023-02-11T03:37:03;5.90;99.90
64143;DHT22;50437;51.970;5.904;2023-02-11T03:39:35;5.90;99.90
64143;DHT22;50437;51.970;5.904;2023-02-11T03:42:03;5.90;99.90
64143;DHT22;50437;51.970;5.904;2023-02-11T03:44:33;5.80;99.90
64143;DHT22;50437;51.970;5.904;2023-02-11T03:47:01;5.90;99.90
64143;DHT22;50437;51.970;5.904;2023-02-11T03:49:28;5.80;99.90
64143;DHT22;50437;51.970;5.904;2023-02-11T03:51:55;5.90;99.90
64143;DHT22;50437;51.970;5.904;2023-02-11T03:54:30;5.90;99.90
64143;DHT22;50437;51.970;5.904;2023-02-11T03:56:59;5.90;99.90
64143;DHT22;50437;51.970;5.904;2023-02-11T03:59:26;5.90;99.90
64143;DHT22;50437;51.970;5.904;2023-02-11T04:01:52;6.00;99.90
64143;DHT22;50437;51.970;5.904;2023-02-11T04:04:18;5.90;99.90
64143;DHT22;50437;51.970;5.904;2023-02-11T04:06:44;5.90;99.90
64143;DHT22;50437;51.970;5.904;2023-02-11T04:09:11;5.90;99.90
64143;DHT22;50437;51.970;5.904;2023-02-11T04:11:36;5.90;99.90
64143;DHT22;50437;51.970;5.904;2023-02-11T04:14:03;6.00;99.90
64143;DHT22;50437;51.970;5.904;2023-02-11T04:16:28;6.00;99.90
64143;DHT22;50437;51.970;5.904;2023-02-11T04:18:56;6.00;99.90
64143;DHT22;50437;51.970;5.904;2023-02-11T04:21:22;5.90;99.90
64143;DHT22;50437;51.970;5.904;2023-02-11T04:23:47;6.00;99.90
64143;DHT22;50437;51.970;5.904;2023-02-11T04:26:13;6.00;99.90
64143;DHT22;50437;51.970;5.904;2023-02-11T04:28:39;6.00;99.90
64143;DHT22;50437;51.970;5.904;2023-02-11T04:31:05;6.00;99.90
64143;DHT22;50437;51.970;5.904;2023-02-11T04:33:31;6.00;99.90
64143;DHT22;50437;51.970;5.904;2023-02-11T04:35:57;6.00;99.90
64143;DHT22;50437;51.970;5.904;2023-02-11T04:38:23;6.00;99.90
64143;DHT22;50437;51.970;5.904;2023-02-11T04:40:49;6.00;99.90
64143;DHT22;50437;51.970;5.904;2023-02-11T04:43:15;6.00;99.90
64143;DHT22;50437;51.970;5.904;2023-02-11T04:45:41;6.00;99.90
64143;DHT22;50437;51.970;5.904;2023-02-11T04:48:07;6.00;99.90
64143;DHT22;50437;51.970;5.904;2023-02-11T04:50:33;6.10;99.90
64143;DHT22;50437;51.970;5.904;2023-02-11T04:52:59;6.10;99.90
64143;DHT22;50437;51.970;5.904;2023-02-11T04:55:25;6.10;99.90
64143;DHT22;50437;51.970;5.904;2023-02-11T04:57:51;6.10;99.90
64143;DHT22;50437;51.970;5.904;2023-02-11T05:00:17;6.10;99.90
64143;DHT22;50437;51.970;5.904;2023-02-11T05:02:43;6.00;99.90
64143;DHT22;50437;51.970;5.904;2023-02-11T05:05:09;6.00;99.90
64143;DHT22;50437;51.970;5.904;2023-02-11T05:07:35;6.00;99.90
64143;DHT22;50437;51.970;5.904;2023-02-11T05:10:01;6.10;99.90
64143;DHT22;50437;51.970;5.904;2023-02-11T05:12:27;6.10;99.90
64143;DHT22;50437;51.970;5.904;2023-02-11T05:14:53;6.10;99.90
64143;DHT22;50437;51.970;5.904;2023-02-11T05:17:18;6.10;99.90
64143;DHT22;50437;51.970;5.904;2023-02-11T05:19:44;6.10;99.90
64143;DHT22;50437;51.970;5.904;2023-02-11T05:22:10;6.10;99.90
64143;DHT22;50437;51.970;5.904;2023-02-11T05:24:36;6.10;99.90
64143;DHT22;50437;51.970;5.904;2023-02-11T05:27:02;6.10;99.90
64143;DHT22;50437;51.970;5.904;2023-02-11T05:29:28;6.00;99.90
64143;DHT22;50437;51.970;5.904;2023-02-11T05:31:54;6.00;99.90
64143;DHT22;50437;51.970;5.904;2023-02-11T05:34:20;6.00;99.90
64143;DHT22;50437;51.970;5.904;2023-02-11T05:36:46;6.00;99.90
64143;DHT22;50437;51.970;5.904;2023-02-11T05:39:12;6.00;99.90
64143;DHT22;50437;51.970;5.904;2023-02-11T05:41:38;6.00;99.90
64143;DHT22;50437;51.970;5.904;2023-02-11T05:44:04;6.00;99.90
64143;DHT22;50437;51.970;5.904;2023-02-11T05:46:30;6.10;99.90
64143;DHT22;50437;51.970;5.904;2023-02-11T05:48:56;6.00;99.90
64143;DHT22;50437;51.970;5.904;2023-02-11T05:51:22;6.00;99.90
64143;DHT22;50437;51.970;5.904;2023-02-11T05:53:49;6.00;99.90
64143;DHT22;50437;51.970;5.904;2023-02-11T05:56:15;6.00;99.90
64143;DHT22;50437;51.970;5.904;2023-02-11T05:58:42;6.00;99.90
64143;DHT22;50437;51.970;5.904;2023-02-11T06:01:08;6.00;99.90
64143;DHT22;50437;51.970;5.904;2023-02-11T06:03:34;6.00;99.90
64143;DHT22;50437;51.970;5.904;2023-02-11T06:06:00;6.00;99.90
64143;DHT22;50437;51.970;5.904;2023-02-11T06:08:26;6.00;99.90
64143;DHT22;50437;51.970;5.904;2023-02-11T06:11:01;6.00;99.90
64143;DHT22;50437;51.970;5.904;2023-02-11T06:13:27;6.00;99.90
64143;DHT22;50437;51.970;5.904;2023-02-11T06:16:05;6.00;99.90
64143;DHT22;50437;51.970;5.904;2023-02-11T06:18:31;6.00;99.90
64143;DHT22;50437;51.970;5.904;2023-02-11T06:20:58;6.00;99.90
64143;DHT22;50437;51.970;5.904;2023-02-11T06:23:25;5.90;99.90
64143;DHT22;50437;51.970;5.904;2023-02-11T06:25:54;6.00;99.90
64143;DHT22;50437;51.970;5.904;2023-02-11T06:28:20;6.00;99.90
64143;DHT22;50437;51.970;5.904;2023-02-11T06:30:46;6.00;99.90
64143;DHT22;50437;51.970;5.904;2023-02-11T06:33:12;6.00;99.90
64143;DHT22;50437;51.970;5.904;2023-02-11T06:35:38;6.00;99.90
64143;DHT22;50437;51.970;5.904;2023-02-11T06:38:07;6.00;99.90
64143;DHT22;50437;51.970;5.904;2023-02-11T06:40:33;6.00;99.90
64143;DHT22;50437;51.970;5.904;2023-02-11T06:42:59;6.00;99.90
64143;DHT22;50437;51.970;5.904;2023-02-11T06:45:25;6.00;99.90
64143;DHT22;50437;51.970;5.904;2023-02-11T06:47:51;6.00;99.90
64143;DHT22;50437;51.970;5.904;2023-02-11T06:50:18;6.00;99.90
64143;DHT22;50437;51.970;5.904;2023-02-11T06:52:44;6.00;99.90
64143;DHT22;50437;51.970;5.904;2023-02-11T06:55:10;6.00;99.90
64143;DHT22;50437;51.970;5.904;2023-02-11T06:57:39;6.00;99.90
64143;DHT22;50437;51.970;5.904;2023-02-11T07:00:05;6.00;99.90
64143;DHT22;50437;51.970;5.904;2023-02-11T07:02:31;6.00;99.90
64143;DHT22;50437;51.970;5.904;2023-02-11T07:04:57;6.00;99.90
64143;DHT22;50437;51.970;5.904;2023-02-11T07:07:23;6.00;99.90
64143;DHT22;50437;51.970;5.904;2023-02-11T07:09:49;6.00;99.90
64143;DHT22;50437;51.970;5.904;2023-02-11T07:12:15;6.00;99.90
64143;DHT22;50437;51.970;5.904;2023-02-11T07:14:41;6.10;99.90
64143;DHT22;50437;51.970;5.904;2023-02-11T07:17:07;6.00;99.90
64143;DHT22;50437;51.970;5.904;2023-02-11T07:19:33;6.00;99.90
64143;DHT22;50437;51.970;5.904;2023-02-11T07:21:59;6.00;99.90
64143;DHT22;50437;51.970;5.904;2023-02-11T07:24:25;6.00;99.90
64143;DHT22;50437;51.970;5.904;2023-02-11T07:26:52;6.00;99.90
64143;DHT22;50437;51.970;5.904;2023-02-11T07:29:18;6.10;99.90
64143;DHT22;50437;51.970;5.904;2023-02-11T07:31:44;6.10;99.90
64143;DHT22;50437;51.970;5.904;2023-02-11T07:34:10;6.10;99.90
64143;DHT22;50437;51.970;5.904;2023-02-11T07:36:36;6.10;99.90
64143;DHT22;50437;51.970;5.904;2023-02-11T07:39:02;6.10;99.90
64143;DHT22;50437;51.970;5.904;2023-02-11T07:41:29;6.10;99.90
64143;DHT22;50437;51.970;5.904;2023-02-11T07:43:55;6.20;99.90
64143;DHT22;50437;51.970;5.904;2023-02-11T07:46:22;6.20;99.90
64143;DHT22;50437;51.970;5.904;2023-02-11T07:48:48;6.20;99.90
64143;DHT22;50437;51.970;5.904;2023-02-11T07:53:41;6.20;99.90
64143;DHT22;50437;51.970;5.904;2023-02-11T07:56:07;6.20;99.90
64143;DHT22;50437;51.970;5.904;2023-02-11T07:58:34;6.20;99.90
64143;DHT22;50437;51.970;5.904;2023-02-11T08:01:03;6.20;99.90
64143;DHT22;50437;51.970;5.904;2023-02-11T08:03:30;6.30;99.90
64143;DHT22;50437;51.970;5.904;2023-02-11T08:05:56;6.30;99.90
64143;DHT22;50437;51.970;5.904;2023-02-11T08:08:24;6.30;99.90
64143;DHT22;50437;51.970;5.904;2023-02-11T08:10:51;6.30;99.90
64143;DHT22;50437;51.970;5.904;2023-02-11T08:13:17;6.40;99.90
64143;DHT22;50437;51.970;5.904;2023-02-11T08:15:43;6.40;99.90
64143;DHT22;50437;51.970;5.904;2023-02-11T08:18:09;6.40;99.90
64143;DHT22;50437;51.970;5.904;2023-02-11T08:20:38;6.50;99.90
64143;DHT22;50437;51.970;5.904;2023-02-11T08:23:05;6.60;99.90
64143;DHT22;50437;51.970;5.904;2023-02-11T08:25:31;6.60;99.90
64143;DHT22;50437;51.970;5.904;2023-02-11T08:27:57;6.50;99.90
64143;DHT22;50437;51.970;5.904;2023-02-11T08:30:23;6.50;99.90
64143;DHT22;50437;51.970;5.904;2023-02-11T08:32:50;6.50;99.90
64143;DHT22;50437;51.970;5.904;2023-02-11T08:35:15;6.50;99.90
64143;DHT22;50437;51.970;5.904;2023-02-11T08:37:41;6.50;99.90
64143;DHT22;50437;51.970;5.904;2023-02-11T08:40:07;6.60;99.90
64143;DHT22;50437;51.970;5.904;2023-02-11T08:42:34;6.70;99.90
64143;DHT22;50437;51.970;5.904;2023-02-11T08:44:59;6.60;99.90
64143;DHT22;50437;51.970;5.904;2023-02-11T08:47:25;6.60;99.90
64143;DHT22;50437;51.970;5.904;2023-02-11T08:49:51;6.60;99.90
64143;DHT22;50437;51.970;5.904;2023-02-11T08:52:17;6.80;99.90
64143;DHT22;50437;51.970;5.904;2023-02-11T08:54:43;6.80;99.90
64143;DHT22;50437;51.970;5.904;2023-02-11T08:57:09;6.90;99.90
64143;DHT22;50437;51.970;5.904;2023-02-11T08:59:35;6.90;99.90
64143;DHT22;50437;51.970;5.904;2023-02-11T09:02:01;7.00;99.90
64143;DHT22;50437;51.970;5.904;2023-02-11T09:04:27;6.90;99.90
64143;DHT22;50437;51.970;5.904;2023-02-11T09:06:53;6.90;99.90
64143;DHT22;50437;51.970;5.904;2023-02-11T09:09:19;6.90;99.90
64143;DHT22;50437;51.970;5.904;2023-02-11T09:11:45;7.00;99.90
64143;DHT22;50437;51.970;5.904;2023-02-11T09:14:16;6.90;99.90
64143;DHT22;50437;51.970;5.904;2023-02-11T09:16:43;7.00;99.90
64143;DHT22;50437;51.970;5.904;2023-02-11T09:19:09;7.00;99.90
64143;DHT22;50437;51.970;5.904;2023-02-11T09:21:35;7.10;99.90
64143;DHT22;50437;51.970;5.904;2023-02-11T09:24:01;7.10;99.90
64143;DHT22;50437;51.970;5.904;2023-02-11T09:26:29;7.10;99.90
64143;DHT22;50437;51.970;5.904;2023-02-11T09:28:55;7.10;99.90
64143;DHT22;50437;51.970;5.904;2023-02-11T09:31:23;7.20;99.90
64143;DHT22;50437;51.970;5.904;2023-02-11T09:33:50;7.30;99.90
64143;DHT22;50437;51.970;5.904;2023-02-11T09:36:20;7.20;99.90
64143;DHT22;50437;51.970;5.904;2023-02-11T09:38:46;7.20;99.90
64143;DHT22;50437;51.970;5.904;2023-02-11T09:43:48;7.30;99.90
64143;DHT22;50437;51.970;5.904;2023-02-11T09:46:15;7.40;99.90
64143;DHT22;50437;51.970;5.904;2023-02-11T09:48:43;7.40;99.90
64143;DHT22;50437;51.970;5.904;2023-02-11T09:51:14;7.50;99.90
64143;DHT22;50437;51.970;5.904;2023-02-11T09:53:41;7.40;99.90
64143;DHT22;50437;51.970;5.904;2023-02-11T09:56:11;7.40;99.90
64143;DHT22;50437;51.970;5.904;2023-02-11T09:58:39;7.50;99.90
64143;DHT22;50437;51.970;5.904;2023-02-11T10:08:59;7.70;99.90
64143;DHT22;50437;51.970;5.904;2023-02-11T10:11:35;7.70;99.90
64143;DHT22;50437;51.970;5.904;2023-02-11T10:14:51;7.70;99.90
64143;DHT22;50437;51.970;5.904;2023-02-11T10:24:39;7.90;99.90
64143;DHT22;50437;51.970;5.904;2023-02-11T10:27:14;7.80;99.90
64143;DHT22;50437;51.970;5.904;2023-02-11T10:29:43;7.90;99.90
64143;DHT22;50437;51.970;5.904;2023-02-11T10:34:45;8.10;99.90
64143;DHT22;50437;51.970;5.904;2023-02-11T10:37:12;8.00;99.90
64143;DHT22;50437;51.970;5.904;2023-02-11T10:39:39;8.00;99.90
64143;DHT22;50437;51.970;5.904;2023-02-11T10:42:06;8.00;99.90
64143;DHT22;50437;51.970;5.904;2023-02-11T10:44:38;8.10;99.90
64143;DHT22;50437;51.970;5.904;2023-02-11T10:47:08;8.10;99.90
64143;DHT22;50437;51.970;5.904;2023-02-11T10:49:40;8.20;99.90
64143;DHT22;50437;51.970;5.904;2023-02-11T10:54:59;8.20;99.90
64143;DHT22;50437;51.970;5.904;2023-02-11T10:57:33;8.30;99.90
64143;DHT22;50437;51.970;5.904;2023-02-11T11:00:02;8.30;99.90
64143;DHT22;50437;51.970;5.904;2023-02-11T11:02:32;8.30;99.90
64143;DHT22;50437;51.970;5.904;2023-02-11T11:05:03;8.50;99.90
64143;DHT22;50437;51.970;5.904;2023-02-11T11:07:31;8.50;99.90
64143;DHT22;50437;51.970;5.904;2023-02-11T11:10:05;8.60;99.90
64143;DHT22;50437;51.970;5.904;2023-02-11T11:12:36;8.80;99.90
64143;DHT22;50437;51.970;5.904;2023-02-11T11:15:27;8.90;99.90
64143;DHT22;50437;51.970;5.904;2023-02-11T11:20:38;9.20;99.90
64143;DHT22;50437;51.970;5.904;2023-02-11T11:23:09;9.30;99.90
64143;DHT22;50437;51.970;5.904;2023-02-11T11:25:40;9.30;99.90
64143;DHT22;50437;51.970;5.904;2023-02-11T11:28:21;9.20;99.90
64143;DHT22;50437;51.970;5.904;2023-02-11T11:30:48;9.10;99.90
64143;DHT22;50437;51.970;5.904;2023-02-11T11:36:03;9.00;99.90
64143;DHT22;50437;51.970;5.904;2023-02-11T11:38:31;9.10;99.90
64143;DHT22;50437;51.970;5.904;2023-02-11T11:46:25;9.60;99.90
64143;DHT22;50437;51.970;5.904;2023-02-11T11:48:51;9.40;99.90
64143;DHT22;50437;51.970;5.904;2023-02-11T11:51:20;9.50;99.90
64143;DHT22;50437;51.970;5.904;2023-02-11T11:54:33;9.40;99.90
64143;DHT22;50437;51.970;5.904;2023-02-11T11:56:49;9.60;99.90
64143;DHT22;50437;51.970;5.904;2023-02-11T11:59:16;9.60;99.90
64143;DHT22;50437;51.970;5.904;2023-02-11T12:01:46;9.80;99.90
64143;DHT22;50437;51.970;5.904;2023-02-11T12:14:42;10.40;99.90
64143;DHT22;50437;51.970;5.904;2023-02-11T12:27:05;10.60;99.90
64143;DHT22;50437;51.970;5.904;2023-02-11T12:37:03;10.40;99.90
64143;DHT22;50437;51.970;5.904;2023-02-11T12:45:07;10.80;99.90
64143;DHT22;50437;51.970;5.904;2023-02-11T12:53:48;11.10;99.90
64143;DHT22;50437;51.970;5.904;2023-02-11T12:55:41;10.80;99.90
64143;DHT22;50437;51.970;5.904;2023-02-11T12:58:11;10.80;99.90
64143;DHT22;50437;51.970;5.904;2023-02-11T13:00:53;10.70;99.90
64143;DHT22;50437;51.970;5.904;2023-02-11T13:03:24;10.60;99.90
64143;DHT22;50437;51.970;5.904;2023-02-11T13:05:57;10.50;99.90
64143;DHT22;50437;51.970;5.904;2023-02-11T13:08:27;10.50;99.90
64143;DHT22;50437;51.970;5.904;2023-02-11T13:10:56;10.40;99.90
64143;DHT22;50437;51.970;5.904;2023-02-11T13:13:28;10.20;99.90
64143;DHT22;50437;51.970;5.904;2023-02-11T13:16:02;10.20;99.90
64143;DHT22;50437;51.970;5.904;2023-02-11T13:28:40;10.30;99.90
64143;DHT22;50437;51.970;5.904;2023-02-11T13:31:07;10.20;99.90
64143;DHT22;50437;51.970;5.904;2023-02-11T13:38:27;10.50;99.90
64143;DHT22;50437;51.970;5.904;2023-02-11T13:41:03;10.50;99.90
64143;DHT22;50437;51.970;5.904;2023-02-11T13:43:30;10.50;99.90
64143;DHT22;50437;51.970;5.904;2023-02-11T13:45:59;10.30;99.90
64143;DHT22;50437;51.970;5.904;2023-02-11T13:48:33;10.30;99.90
64143;DHT22;50437;51.970;5.904;2023-02-11T13:51:01;10.20;99.90
64143;DHT22;50437;51.970;5.904;2023-02-11T13:53:27;10.10;99.90
64143;DHT22;50437;51.970;5.904;2023-02-11T13:56:04;10.10;99.90
64143;DHT22;50437;51.970;5.904;2023-02-11T13:58:33;10.00;99.90
64143;DHT22;50437;51.970;5.904;2023-02-11T14:01:02;9.90;99.90
64143;DHT22;50437;51.970;5.904;2023-02-11T14:03:29;9.90;99.90
64143;DHT22;50437;51.970;5.904;2023-02-11T14:06:18;9.80;99.90
64143;DHT22;50437;51.970;5.904;2023-02-11T14:11:48;9.80;99.90
64143;DHT22;50437;51.970;5.904;2023-02-11T14:14:16;9.70;99.90
64143;DHT22;50437;51.970;5.904;2023-02-11T14:22:12;9.80;99.90
64143;DHT22;50437;51.970;5.904;2023-02-11T14:24:42;9.90;99.90
64143;DHT22;50437;51.970;5.904;2023-02-11T14:27:12;10.00;99.90
64143;DHT22;50437;51.970;5.904;2023-02-11T14:29:42;10.00;99.90
64143;DHT22;50437;51.970;5.904;2023-02-11T14:32:20;10.10;99.90
64143;DHT22;50437;51.970;5.904;2023-02-11T14:35:02;10.20;99.90
64143;DHT22;50437;51.970;5.904;2023-02-11T14:37:32;10.30;99.90
64143;DHT22;50437;51.970;5.904;2023-02-11T14:42:41;10.40;99.90
64143;DHT22;50437;51.970;5.904;2023-02-11T14:45:08;10.40;99.90
64143;DHT22;50437;51.970;5.904;2023-02-11T14:50:01;10.30;99.90
64143;DHT22;50437;51.970;5.904;2023-02-11T14:52:28;10.20;99.90
64143;DHT22;50437;51.970;5.904;2023-02-11T14:55:38;10.30;99.90
64143;DHT22;50437;51.970;5.904;2023-02-11T14:57:44;10.20;99.90
64143;DHT22;50437;51.970;5.904;2023-02-11T15:00:18;10.20;99.90
64143;DHT22;50437;51.970;5.904;2023-02-11T15:02:45;10.20;99.90
64143;DHT22;50437;51.970;5.904;2023-02-11T15:05:15;10.10;99.90
64143;DHT22;50437;51.970;5.904;2023-02-11T15:07:46;10.10;99.90
64143;DHT22;50437;51.970;5.904;2023-02-11T15:10:17;10.10;99.90
64143;DHT22;50437;51.970;5.904;2023-02-11T15:12:44;10.00;99.90
64143;DHT22;50437;51.970;5.904;2023-02-11T15:15:13;10.00;99.90
64143;DHT22;50437;51.970;5.904;2023-02-11T15:17:40;9.90;99.90
64143;DHT22;50437;51.970;5.904;2023-02-11T15:20:12;10.10;99.90
64143;DHT22;50437;51.970;5.904;2023-02-11T15:22:40;10.10;99.90
64143;DHT22;50437;51.970;5.904;2023-02-11T15:25:11;10.20;99.90
64143;DHT22;50437;51.970;5.904;2023-02-11T15:27:43;10.20;99.90
64143;DHT22;50437;51.970;5.904;2023-02-11T15:32:48;10.30;99.90
64143;DHT22;50437;51.970;5.904;2023-02-11T15:35:15;10.40;99.90
64143;DHT22;50437;51.970;5.904;2023-02-11T15:37:42;10.30;99.90
64143;DHT22;50437;51.970;5.904;2023-02-11T15:42:34;10.20;99.90
64143;DHT22;50437;51.970;5.904;2023-02-11T15:47:39;10.20;99.90
64143;DHT22;50437;51.970;5.904;2023-02-11T15:50:05;10.10;99.90
64143;DHT22;50437;51.970;5.904;2023-02-11T15:52:32;10.10;99.90
64143;DHT22;50437;51.970;5.904;2023-02-11T15:54:58;10.10;99.90
64143;DHT22;50437;51.970;5.904;2023-02-11T15:57:26;10.00;99.90
64143;DHT22;50437;51.970;5.904;2023-02-11T15:59:53;9.90;99.90
64143;DHT22;50437;51.970;5.904;2023-02-11T16:04:55;9.80;99.90
64143;DHT22;50437;51.970;5.904;2023-02-11T16:10:20;9.60;99.90
64143;DHT22;50437;51.970;5.904;2023-02-11T16:13:29;9.50;99.90
64143;DHT22;50437;51.970;5.904;2023-02-11T16:15:46;9.40;99.90
64143;DHT22;50437;51.970;5.904;2023-02-11T16:18:29;9.30;99.90
64143;DHT22;50437;51.970;5.904;2023-02-11T16:20:57;9.20;99.90
64143;DHT22;50437;51.970;5.904;2023-02-11T16:23:24;9.20;99.90
64143;DHT22;50437;51.970;5.904;2023-02-11T16:25:54;9.10;99.90
64143;DHT22;50437;51.970;5.904;2023-02-11T16:28:22;9.10;99.90
64143;DHT22;50437;51.970;5.904;2023-02-11T16:30:50;9.10;99.90
64143;DHT22;50437;51.970;5.904;2023-02-11T16:33:16;9.00;99.90
64143;DHT22;50437;51.970;5.904;2023-02-11T16:35:42;8.90;99.90
64143;DHT22;50437;51.970;5.904;2023-02-11T16:38:12;8.90;99.90
64143;DHT22;50437;51.970;5.904;2023-02-11T16:40:38;8.80;99.90
64143;DHT22;50437;51.970;5.904;2023-02-11T16:43:04;8.80;99.90
64143;DHT22;50437;51.970;5.904;2023-02-11T16:45:30;8.80;99.90
64143;DHT22;50437;51.970;5.904;2023-02-11T16:47:56;8.80;99.90
64143;DHT22;50437;51.970;5.904;2023-02-11T16:50:23;8.70;99.90
64143;DHT22;50437;51.970;5.904;2023-02-11T16:52:49;8.70;99.90
64143;DHT22;50437;51.970;5.904;2023-02-11T16:55:19;8.60;99.90
64143;DHT22;50437;51.970;5.904;2023-02-11T16:57:45;8.60;99.90
64143;DHT22;50437;51.970;5.904;2023-02-11T17:00:13;8.50;99.90
64143;DHT22;50437;51.970;5.904;2023-02-11T17:02:40;8.50;99.90
64143;DHT22;50437;51.970;5.904;2023-02-11T17:05:07;8.40;99.90
64143;DHT22;50437;51.970;5.904;2023-02-11T17:07:33;8.30;99.90
64143;DHT22;50437;51.970;5.904;2023-02-11T17:10:00;8.30;99.90
64143;DHT22;50437;51.970;5.904;2023-02-11T17:12:26;8.20;99.90
64143;DHT22;50437;51.970;5.904;2023-02-11T17:14:55;8.20;99.90
64143;DHT22;50437;51.970;5.904;2023-02-11T17:17:20;8.20;99.90
64143;DHT22;50437;51.970;5.904;2023-02-11T17:19:48;8.10;99.90
64143;DHT22;50437;51.970;5.904;2023-02-11T17:22:15;8.10;99.90
64143;DHT22;50437;51.970;5.904;2023-02-11T17:24:40;8.00;99.90
64143;DHT22;50437;51.970;5.904;2023-02-11T17:27:07;8.00;99.90
64143;DHT22;50437;51.970;5.904;2023-02-11T17:29:34;7.90;99.90
64143;DHT22;50437;51.970;5.904;2023-02-11T17:32:00;7.90;99.90
64143;DHT22;50437;51.970;5.904;2023-02-11T17:34:25;7.90;99.90
64143;DHT22;50437;51.970;5.904;2023-02-11T17:36:53;7.80;99.90
64143;DHT22;50437;51.970;5.904;2023-02-11T17:39:19;7.80;99.90
64143;DHT22;50437;51.970;5.904;2023-02-11T17:41:45;7.70;99.90
64143;DHT22;50437;51.970;5.904;2023-02-11T17:44:11;7.60;99.90
64143;DHT22;50437;51.970;5.904;2023-02-11T17:46:38;7.60;99.90
64143;DHT22;50437;51.970;5.904;2023-02-11T17:49:04;7.70;99.90
64143;DHT22;50437;51.970;5.904;2023-02-11T17:51:31;7.60;99.90
64143;DHT22;50437;51.970;5.904;2023-02-11T17:53:59;7.50;99.90
64143;DHT22;50437;51.970;5.904;2023-02-11T17:56:26;7.50;99.90
64143;DHT22;50437;51.970;5.904;2023-02-11T17:58:52;7.50;99.90
64143;DHT22;50437;51.970;5.904;2023-02-11T18:01:18;7.50;99.90
64143;DHT22;50437;51.970;5.904;2023-02-11T18:03:45;7.40;99.90
64143;DHT22;50437;51.970;5.904;2023-02-11T18:06:11;7.40;99.90
64143;DHT22;50437;51.970;5.904;2023-02-11T18:08:37;7.40;99.90
64143;DHT22;50437;51.970;5.904;2023-02-11T18:11:03;7.40;99.90
64143;DHT22;50437;51.970;5.904;2023-02-11T18:13:33;7.40;99.90